Hlavní strana
METAR-TAF:

METAR-TAF

Letiště :

Ashland, Kentucky, Spojené státy americké

zeměpisná šířka: 38-33-16N, zeměpisná délka: 082-44-17W, výška: 166 m

Aktuální stav počasí

Zpráva byla vytvořena před 16 minutami, v 07:12 UTC
Východoseverovýchodní vítr 10 kt s nárazy do 16 kt, proměnlivý mezi severoseverozápadním a jižním
Teplota 17°C
Vlhkost vzduchu 100%
Tlak 1018 hPa
Viditelnost: 2.8 km
Jasno
kouřmo

METAR: KDWU 300712Z AUTO 07010G16KT 330V180 1 3/4SM BR CLR 17/17 A3005 RMK AO2 PNO $

Čas: 03:28 (07:28 UTC)


TAF: chybějící

Stav a předpovědi počasí z více než 4 000 letišť (zprávy METAR a TAF).

Červené a žluté tečky na mapě představují dostupné meteorologické stanice.

Když kurzor umístíte na tečku, zobrazí se název stanice.

Pak kliknutím zobrazíte stav a předpověď počasí.

Chcete-li změnit mapu, kliknutím na zelené tlačítko se znaménkem +mapu přiblížíte, kliknutím na zelené tlačítko se znaménkem – mapu oddálíte a kliknutím na zelené šipky přejdete na sousední mapy.


METAR-TAF: